Aérodrome :
LOGIN :

S'inscrire | Disclaimer

   EN    FR    IT 

 










Légende :    VFR   VFR Marginal   IFR   IFR Intensif   IFR Très Intensif
Visi : 
Plafond : 
>= 8 km
>= 3000ft
5 à 8 km
1000 à 3000 ft
1500m à 5 km
500 à 1000 ft
800 à 1500m
200 à 500 ft
< 800m
< 200 ft
Symboles :   Orages  Brouillard  Fortes neiges  Fortes précipitations  Vent > 20 kt
SIGMETs :   Divers  Orages  Givrage  Turbulence  Onde Orograph.  Cendres Volcan.







- Altitude de l'aérodrome : 194 ft


EBCV - Chièvres

DERNIER METAR :
  • 230455Z AUTO 11008KT 4000 -SN SCT006/// OVC028/// M01/M01 Q0994 YLO

METARs EXPIRÉS :
  • 230433Z AUTO 11008KT 3000 -SN FEW007/// OVC022/// M01/M01 Q0994 YLO
  • 230403Z AUTO 12009KT 2300 -SN OVC028/// M01/M01 Q0995 YLO
  • 230355Z AUTO 12009KT 3700 -SN SCT026/// OVC029/// M01/M01 Q0994 GRN
  • 230325Z AUTO 12009KT 2600 -SN OVC014/// M01/M01 Q0995 YLO
  • 230314Z AUTO 12009KT 1500 -SN OVC014/// M01/M01 Q0995 AMB
  • 230255Z AUTO 12009KT 1600 -SN FEW005/// OVC017/// M01/M01 Q0995 YLO
  • 230247Z AUTO 12009KT 1000 -SN FEW004/// OVC012/// M01/M01 Q0995 AMB
  • 230225Z AUTO 12009KT 2100 -SN FEW004/// OVC012/// M01/M01 Q0995 YLO
  • 230220Z AUTO 12009KT 1100 -SN FEW004/// OVC012/// M01/M01 Q0995 AMB

TAF TAF EBCV
Valide du 22 à 19h jusqu'au 23 à 07h UTC


221541Z 2219/2307 18006KT 7000 OVC012
TEMPO 2223/2307 12004KT 3000 BR BKN007
PROB30
TEMPO 2302/2307 2000 -SHSN BR SCT005 OVC008
PROB40 2305//230 1200 BR BKN004 OVC007 BY EBWM
Pas de NOTAMs connus pour ce terrain.



MET'MAP, la Météo Aéronautique d'un coup d'oeil ! - Copyright ORBIFLY Décembre 2007 - Disclaimer

ORBIFLY MET'MAP TEAM :

Programmation & Développement : Alexandra Zaïnal
Conception & Développement : Baudouin d'Aumeries
Co-Programmation & Développement : Marc-Olivier Méhu
Soutien technique & logistique : Manuel Goepfert

Contact : metmap@orbifly.com




SOURCES & CREDITS :

   NOAA